x

Bodega Bay - 48nm Nnw Of San Francisco, Ca (46013) Wave Buoy

8:50am - Sun 20th Apr 2014 All times are PDT. -7 hours from GMT.

  • Sig Wave height 14.8ft
  • Peak Period 16s
  • Average Period 11s
  • Wind
    18mph, 20mph gusts
  • Sea Temp 49°f
  • Air Temp 51°f
  • Sea Pressure 1021.2mb
  • Bodega Bay - 48nm Nnw Of San Francisco, Ca
  • Bodega Bay - 48nm Nnw Of San Francisco, Ca

More Historic Weather Station data

Upgrade to MSW Pro to gain access to the past 30 days of data for over 8000 Wavebouys and Weather Stations around the globe.

Join Pro

Comparision Forecast

View Surf forecast
   
Sun 04/20 8:50am 15ft 16s 11s 18 20 mph 1021.2mb 49f 51f
7:50am 11.5ft 15s 9s 22 25 mph 1020.7mb 49f 51f
6:50am  -   -   -  18
mph
1019.9mb 48f 51f
5:50am 10ft 17s 8s 20 25 mph 1019.2mb 48f 51f
4:50am 8ft 17s 7s 20 25 mph 1019.4mb 48f 51f
3:50am  -   -   -  20 25 mph 1019.7mb 49f 51f
2:50am 6ft 14s 6s 20 25 mph 1019.9mb 49f 51f
1:50am 6ft 14s 6s 22 25 mph 1020.1mb 49f 51f
12:50am 5.5ft 13s 5s 27 29 mph 1019.8mb 49f 51f
Sat 04/19 11:50pm 6ft 14s 5s 25 29 mph 1020.1mb 49f 51f
10:50pm 6ft 13s 5s 20 22 mph 1020.3mb 48f 51f
9:50pm 5ft 12s 5s 25 29 mph 1020.2mb 48f 51f
8:50pm 6ft 13s 5s 25 31 mph 1019.8mb 49f 51f
7:50pm 5ft 12s 5s 25 31 mph 1019.2mb 49f 51f
6:50pm 4.5ft 12s 6s 25 29 mph 1019.2mb 49f 52f
5:50pm 4.5ft 13s 7s 20 22 mph 1019.6mb 49f 51f
4:50pm 5ft 13s 7s 18 20 mph 1019.8mb 49f 51f
3:50pm 5ft 13s 7s 18 20 mph 1020mb 49f 51f
2:50pm 5ft 13s 8s 13 18 mph 1020.1mb 49f 51f
1:50pm 4.5ft 14s 7s 11 13 mph 1020.1mb 49f 51f
12:50pm 4.5ft 14s 7s 11 13 mph 1020mb 49f 51f
11:50am 5ft 14s 7s 11 13 mph 1020mb 49f 50f
10:50am 5ft 14s 8s 9 11 mph 1019.3mb 49f 50f
9:50am 5ft 14s 7s 9 11 mph 1018.3mb 48f 50f
8:50am 5.5ft 15s 7s 13 16 mph 1017.9mb 48f 50f
7:50am 5.5ft 10s 6s 13 18 mph 1017.4mb 48f 49f
6:50am 6.5ft 15s 7s 13 16 mph 1016.2mb 48f 49f
5:50am 6ft 15s 6s 18 20 mph 1015.9mb 48f 49f
4:50am 6ft 15s 6s 20 25 mph 1015.2mb 48f 50f
3:50am 6ft 15s 7s 16 18 mph 1015.1mb 48f 50f
2:50am 6ft 15s 7s 13 16 mph 1015.1mb 48f 50f
1:50am 6ft 11s 6s 16 18 mph 1014.8mb 48f 50f
12:50am 7ft 15s 7s 16 18 mph 1014.1mb 49f 50f
Fri 04/18 11:50pm 6.5ft 10s 6s 18 22 mph 1013.2mb 49f 50f
10:50pm 6ft 10s 6s 22 27 mph 1013.4mb 49f 50f
9:50pm  -   -   -  25 29 mph 1013.3mb 49f 50f
8:50pm 7ft 11s 6s 20 25 mph 1012.8mb 49f 50f
7:50pm 7ft 11s 6s 27 31 mph 1012.1mb 49f 51f
6:50pm 7.5ft 11s 6s 27 34 mph 1011.9mb 49f 51f
5:50pm  -   -   -  27 34 mph 1012mb 49f 51f
4:50pm 6.5ft 12s 6s 22 29 mph 1012.5mb 49f 51f
3:50pm 6ft 12s 6s 20 22 mph 1012.9mb 49f 51f
2:50pm 6ft 11s 6s 18 20 mph 1013.6mb 49f 51f
1:50pm 6ft 11s 6s 16 20 mph 1013.8mb 49f 51f
12:50pm 6ft 11s 6s 16 20 mph 1014.1mb 49f 50f
11:50am 5.5ft 11s 6s 16 18 mph 1014.3mb 49f 50f
10:50am 6.5ft 11s 6s 20 25 mph 1014mb 49f 49f
9:50am 7ft 11s 6s 25 29 mph 1013.6mb 48f 49f
8:50am 7ft 6s 6s 22 27 mph 1013.5mb 48f 49f
7:50am 8ft 11s 6s 25 31 mph 1013.1mb 48f 49f
6:50am 8ft 11s 6s 27 34 mph 1012.4mb 48f 49f
5:50am 7.5ft 12s 6s 27 31 mph 1011.9mb 48f 50f
4:50am 8ft 11s 6s 27 31 mph 1011.8mb 49f 51f
3:50am 8ft 11s 6s 27 34 mph 1011.9mb 49f 51f
2:50am 8ft 11s 6s 27 31 mph 1011.7mb 49f 51f
1:50am 8ft 11s 6s 25 31 mph 1011.8mb 49f 51f
12:50am 7ft 12s 6s 22 29 mph 1012mb 49f 51f
Thu 04/17 11:50pm 8ft 11s 6s 25 29 mph 1011.9mb 49f 51f
10:50pm 7.5ft 11s 6s 27 31 mph 1012mb 49f 51f
9:50pm 8ft 11s 6s 27 34 mph 1012.3mb 49f 51f
8:50pm  -   -   -  25 29 mph 1011.7mb 49f 51f
7:50pm 8.5ft 12s 6s 29 34 mph 1011.4mb 49f 51f
6:50pm 9ft 12s 6s 27 34 mph 1011.6mb 49f 52f
5:50pm  -   -   -  31 38 mph 1011.1mb 49f 53f
4:50pm  -   -   -  31 38 mph 1010.8mb 49f 52f
3:50pm 10ft 7s 6s 34 43 mph 1010.8mb 49f 52f
2:50pm 10.5ft 7s 6s 34 40 mph 1011.3mb 49f 52f
1:50pm 10.5ft 8s 6s 31 36 mph 1011.5mb 49f 52f
12:50pm  -   -   -  29 36 mph 1011.6mb 49f 51f
11:50am 10ft 8s 6s 31 40 mph 1011.4mb 49f 51f
10:50am 11ft 8s 6s 31 36 mph 1011.2mb 49f 51f
9:50am 10ft 8s 6s 34 43 mph 1010.8mb 49f 50f
8:50am 10ft 8s 6s 34 43 mph 1010.5mb 49f 50f
7:50am 8ft 8s 6s 31 38 mph 1010.5mb 49f 50f
6:50am 8.5ft 8s 6s 25 29 mph 1009.8mb 49f 51f
4:50am  -   -   -  22
mph
- - -
3:50am 8ft 9s 6s 22 27 mph 1009.6mb 49f 51f
2:50am 8ft 9s 6s 25 29 mph 1009.6mb 49f 51f
1:50am 9ft 8s 6s 25 31 mph 1010.3mb 50f 51f
12:50am 9ft 8s 6s 25 31 mph 1010.3mb 50f 51f
Wed 04/16 11:50pm  -   -   -  27 34 mph 1010mb 50f 51f
10:50pm 10ft 8s 6s 29 34 mph 1010.4mb 50f 52f
9:50pm 11ft 8s 6s 34 40 mph 1010.3mb 50f 52f
8:50pm 11ft 8s 6s 31 38 mph 1010.6mb 50f 52f
7:50pm  -   -   -  34 43 mph 1010mb 50f 52f
5:50pm 10ft 8s 6s 27 36 mph 1010.7mb 50f 53f
4:50pm 10ft 6s 6s 27 34 mph 1011.2mb 50f 53f